createdAt,value
2023-05-04T00:01:01.352Z,151095.16
2023-05-04T00:03:27.296Z,151079.97
2023-05-04T00:05:53.139Z,151096.41
2023-05-04T00:08:18.983Z,151083.78
2023-05-04T00:10:44.831Z,151038.25
2023-05-04T00:13:11.235Z,151055.94
2023-05-04T00:15:37.154Z,151061.00
2023-05-04T00:18:03.091Z,151087.59
2023-05-04T00:20:28.878Z,151043.28
2023-05-04T00:22:54.849Z,151040.78
2023-05-04T00:25:20.735Z,151045.88
2023-05-04T00:27:46.559Z,150995.28
2023-05-04T00:30:12.652Z,151005.38
2023-05-04T00:32:38.513Z,150983.88
2023-05-04T00:35:04.702Z,150972.50
2023-05-04T00:37:30.523Z,150995.28
2023-05-04T00:39:56.328Z,150986.41
2023-05-04T00:42:22.164Z,151011.72
2023-05-04T00:44:47.974Z,150985.16
2023-05-04T00:47:16.085Z,150983.88
2023-05-04T00:49:41.950Z,151011.72
2023-05-04T00:52:09.784Z,151007.91
2023-05-04T00:54:35.720Z,150983.88
2023-05-04T00:57:02.810Z,150986.41
2023-05-04T00:59:28.570Z,150971.22
2023-05-04T01:01:54.532Z,150973.81
2023-05-04T01:04:20.905Z,150966.19
2023-05-04T01:07:20.231Z,150942.19
2023-05-04T01:09:57.554Z,150967.44
2023-05-04T01:12:37.160Z,150982.63
2023-05-04T01:15:03.511Z,151010.47
2023-05-04T01:17:29.455Z,150959.88
2023-05-04T01:19:55.241Z,150959.88
2023-05-04T01:22:21.489Z,150940.91
2023-05-04T01:24:47.437Z,150929.53
2023-05-04T01:27:23.727Z,150940.91
2023-05-04T01:29:57.869Z,150938.41
2023-05-04T01:32:29.539Z,150915.63
2023-05-04T01:34:56.028Z,150923.22
2023-05-04T01:37:21.994Z,150914.34
2023-05-04T01:39:47.832Z,150892.88
2023-05-04T01:42:13.622Z,150881.44
2023-05-04T01:44:39.914Z,150905.53
2023-05-04T01:47:05.852Z,150915.63
2023-05-04T01:49:31.629Z,150921.97
2023-05-04T01:51:57.452Z,150940.91
2023-05-04T01:54:23.228Z,150935.84
2023-05-04T01:56:49.071Z,150913.09
2023-05-04T01:59:15.170Z,150904.28
2023-05-04T02:01:41.199Z,150899.19
2023-05-04T02:04:07.517Z,150911.84
2023-05-04T02:06:33.424Z,150900.44
2023-05-04T02:08:59.406Z,150891.63
2023-05-04T02:11:25.313Z,150862.47
2023-05-04T02:13:51.109Z,150887.78
2023-05-04T02:16:16.959Z,150870.09
2023-05-04T02:18:42.855Z,150878.91
2023-05-04T02:21:08.725Z,150839.75
2023-05-04T02:23:37.243Z,150863.75
2023-05-04T02:26:03.094Z,150841.00
2023-05-04T02:28:29.009Z,150863.75
2023-05-04T02:30:54.774Z,150857.44
2023-05-04T02:33:20.978Z,150900.44
2023-05-04T02:35:46.792Z,150890.34
2023-05-04T02:38:12.638Z,150866.31
2023-05-04T02:40:38.388Z,150835.97
2023-05-04T02:43:04.175Z,150827.09
2023-05-04T02:45:30.051Z,150811.97
2023-05-04T02:47:55.979Z,150828.34
2023-05-04T02:50:21.820Z,150834.72
2023-05-04T02:52:47.643Z,150851.13
2023-05-04T02:55:13.508Z,150865.00
2023-05-04T02:57:39.333Z,150854.91
2023-05-04T03:00:06.306Z,150857.44
2023-05-04T03:02:32.606Z,150878.91
2023-05-04T03:04:58.440Z,150882.69
2023-05-04T03:07:24.865Z,150839.75
2023-05-04T03:09:50.682Z,150814.50
2023-05-04T03:12:16.498Z,150828.34
2023-05-04T03:17:08.467Z,150824.56
2023-05-04T03:19:34.339Z,150792.97
2023-05-04T03:22:00.154Z,150794.28
2023-05-04T03:24:26.064Z,150762.69
2023-05-04T03:26:51.894Z,150799.31
2023-05-04T03:29:17.730Z,150804.38
2023-05-04T03:31:43.637Z,150790.47
2023-05-04T03:34:11.741Z,150779.13
2023-05-04T03:36:38.046Z,150763.94
2023-05-04T03:39:03.901Z,150768.97
2023-05-04T03:41:29.639Z,150780.38
2023-05-04T03:43:55.474Z,150782.91
2023-05-04T03:46:21.415Z,150780.38
2023-05-04T03:48:47.188Z,150794.28
2023-05-04T03:51:13.106Z,150758.91
2023-05-04T03:53:38.948Z,150733.59
2023-05-04T03:56:05.034Z,150742.47
2023-05-04T03:58:30.928Z,150753.81
2023-05-04T04:00:56.692Z,150722.28
2023-05-04T04:03:22.764Z,150713.41
2023-05-04T04:05:49.271Z,150755.06
2023-05-04T04:08:15.051Z,150767.72
2023-05-04T04:10:41.435Z,150772.75
2023-05-04T04:13:07.234Z,150762.69
2023-05-04T04:15:35.354Z,150752.56
2023-05-04T04:18:01.387Z,150753.81
2023-05-04T04:20:27.295Z,150776.59
2023-05-04T04:22:53.278Z,150794.28
2023-05-04T04:25:19.183Z,150806.88
2023-05-04T04:27:45.030Z,150804.38
2023-05-04T04:30:11.509Z,150818.28
2023-05-04T04:32:37.512Z,150801.84
2023-05-04T04:35:04.095Z,150796.81
2023-05-04T04:37:30.006Z,150828.34
2023-05-04T04:39:55.781Z,150823.31
2023-05-04T04:42:21.584Z,150786.69
2023-05-04T04:44:48.741Z,150780.38
2023-05-04T04:47:15.938Z,150796.81
2023-05-04T04:49:42.621Z,150799.31
2023-05-04T04:52:08.393Z,150820.78
2023-05-04T04:54:34.718Z,150833.44
2023-05-04T04:57:00.642Z,150813.22
2023-05-04T04:59:26.408Z,150815.75
2023-05-04T05:01:52.151Z,150851.13
2023-05-04T05:04:21.751Z,150847.31
2023-05-04T05:06:47.957Z,150835.97
2023-05-04T05:09:13.791Z,150856.19
2023-05-04T05:11:39.735Z,150849.88
2023-05-04T05:14:05.824Z,150862.47
2023-05-04T05:16:32.081Z,150859.97
2023-05-04T05:18:57.997Z,150890.34
2023-05-04T05:21:23.816Z,150878.91
2023-05-04T05:23:49.652Z,150918.13
2023-05-04T05:26:15.516Z,150906.78
2023-05-04T05:28:41.299Z,150924.50
2023-05-04T05:31:07.185Z,150934.56
2023-05-04T05:33:33.069Z,150932.06
2023-05-04T05:36:05.377Z,150932.06
2023-05-04T05:38:31.953Z,150983.88
2023-05-04T05:40:57.918Z,150956.09
2023-05-04T05:43:23.727Z,150975.06
2023-05-04T05:45:49.476Z,151015.50
2023-05-04T05:48:15.458Z,151023.06
2023-05-04T05:50:41.359Z,151044.56
2023-05-04T05:53:07.245Z,151044.56
2023-05-04T05:55:33.180Z,151074.91
2023-05-04T05:57:58.964Z,151090.09
2023-05-04T06:00:25.391Z,151097.66
2023-05-04T06:02:51.909Z,151144.47
2023-05-04T06:05:17.882Z,151126.78
2023-05-04T06:07:43.734Z,151131.81
2023-05-04T06:10:10.176Z,151173.59
2023-05-04T06:12:36.096Z,151215.31
2023-05-04T06:15:01.951Z,151246.97
2023-05-04T06:17:27.849Z,151284.91
2023-05-04T06:19:53.722Z,151315.31
2023-05-04T06:22:19.581Z,151317.84
2023-05-04T06:24:45.783Z,151339.34
2023-05-04T06:27:11.703Z,151381.13
2023-05-04T06:29:40.700Z,151364.69
2023-05-04T06:32:09.331Z,151388.75
2023-05-04T06:34:35.327Z,151382.41
2023-05-04T06:37:01.133Z,151417.84
2023-05-04T06:39:26.986Z,151445.72
2023-05-04T06:41:54.750Z,151478.63
2023-05-04T06:44:21.574Z,151524.19
2023-05-04T06:46:47.550Z,151588.78
2023-05-04T06:49:13.350Z,151609.06
2023-05-04T06:51:39.296Z,151635.63
2023-05-04T06:54:05.566Z,151612.84
2023-05-04T06:56:31.704Z,151653.38
2023-05-04T06:58:57.912Z,151672.38
2023-05-04T07:01:23.834Z,151692.63
2023-05-04T07:03:49.859Z,151691.38
2023-05-04T07:06:15.737Z,151700.25
2023-05-04T07:08:41.799Z,151728.09
2023-05-04T07:11:08.535Z,151726.84
2023-05-04T07:13:34.314Z,151725.56
2023-05-04T07:16:00.270Z,151759.84
2023-05-04T07:18:26.149Z,151778.84
2023-05-04T07:20:53.030Z,151815.59
2023-05-04T07:23:22.073Z,151828.28
2023-05-04T07:25:52.367Z,151843.50
2023-05-04T07:28:19.394Z,151865.03
2023-05-04T07:30:45.261Z,151872.63
2023-05-04T07:33:11.222Z,151873.94
2023-05-04T07:35:37.059Z,151868.81
2023-05-04T07:38:02.910Z,151885.31
2023-05-04T07:40:28.778Z,151889.09
2023-05-04T07:42:55.602Z,151909.38
2023-05-04T07:45:21.387Z,151914.47
2023-05-04T07:47:47.241Z,151937.28
2023-05-04T07:50:13.636Z,151941.09
2023-05-04T07:52:39.426Z,151962.63
2023-05-04T07:55:06.100Z,151976.59
2023-05-04T07:57:32.807Z,152007.03
2023-05-04T07:59:58.708Z,152024.78
2023-05-04T08:02:24.918Z,152080.56
2023-05-04T08:04:50.848Z,152102.19
2023-05-04T08:07:16.966Z,152142.75
2023-05-04T08:09:42.788Z,152154.19
2023-05-04T08:12:08.512Z,152147.88
2023-05-04T08:14:35.260Z,152119.94
2023-05-04T08:17:02.310Z,152152.91
2023-05-04T08:19:28.235Z,152146.59
2023-05-04T08:21:54.063Z,152150.41
2023-05-04T08:24:19.949Z,152192.25
2023-05-04T08:26:55.654Z,152244.25
2023-05-04T08:29:25.938Z,152262.03
2023-05-04T08:31:53.944Z,152229.03
2023-05-04T08:34:19.787Z,152207.47
2023-05-04T08:36:46.361Z,152221.44
2023-05-04T08:39:12.645Z,152236.66
2023-05-04T08:41:40.144Z,152306.41
2023-05-04T08:44:08.792Z,152305.16
2023-05-04T08:46:35.571Z,152377.50
2023-05-04T08:49:01.433Z,152385.16
2023-05-04T08:51:28.080Z,152401.66
2023-05-04T08:53:54.979Z,152420.72
2023-05-04T08:56:22.182Z,152362.31
2023-05-04T08:58:50.615Z,152424.53
2023-05-04T09:01:18.476Z,152452.50
2023-05-04T09:03:46.621Z,152441.03
2023-05-04T09:06:13.520Z,152461.34
2023-05-04T09:08:40.481Z,152490.56
2023-05-04T09:11:06.408Z,152505.81
2023-05-04T09:13:33.292Z,152531.19
2023-05-04T09:15:59.301Z,152545.16
2023-05-04T09:18:42.261Z,152543.91
2023-05-04T09:21:08.660Z,152518.47
2023-05-04T09:23:52.889Z,152550.25
2023-05-04T09:26:32.070Z,152559.09
2023-05-04T09:29:12.695Z,152599.78
2023-05-04T09:31:46.554Z,152669.66
2023-05-04T09:34:14.201Z,152709.06
2023-05-04T09:36:41.406Z,152650.59
2023-05-04T09:39:11.416Z,152660.72
2023-05-04T09:41:37.462Z,152686.16
2023-05-04T09:44:03.920Z,152762.44
2023-05-04T09:46:30.168Z,152795.47
2023-05-04T09:48:56.943Z,152715.41
2023-05-04T09:51:25.724Z,152762.44
2023-05-04T09:53:53.130Z,152766.22
2023-05-04T09:56:40.429Z,152831.06
2023-05-04T09:59:09.364Z,152879.34
2023-05-04T10:01:35.874Z,152916.19
2023-05-04T10:04:03.275Z,152977.28
2023-05-04T10:06:29.621Z,153019.22
2023-05-04T10:08:56.024Z,153087.91
2023-05-04T10:11:25.019Z,153110.78
2023-05-04T10:13:51.331Z,153120.97
2023-05-04T10:16:40.728Z,153150.22
2023-05-04T10:19:37.246Z,153154.00
2023-05-04T10:22:17.650Z,153274.94
2023-05-04T10:25:02.018Z,153355.13
2023-05-04T10:27:43.271Z,153411.13
2023-05-04T10:30:11.415Z,153423.81
2023-05-04T10:32:39.208Z,153439.09
2023-05-04T10:35:07.079Z,153445.44
2023-05-04T10:37:33.325Z,153510.44
2023-05-04T10:39:59.170Z,153535.88
2023-05-04T10:42:25.045Z,153502.81
2023-05-04T10:44:54.420Z,153448.03
2023-05-04T10:47:56.571Z,153417.47
2023-05-04T10:50:22.372Z,153552.44
2023-05-04T10:52:56.366Z,153646.72
2023-05-04T10:55:23.309Z,153516.78
2023-05-04T10:57:58.319Z,153548.63
2023-05-04T11:00:38.129Z,153639.03
2023-05-04T11:03:06.613Z,153675.97
2023-05-04T11:05:53.796Z,153678.53
2023-05-04T11:08:21.609Z,153729.53
2023-05-04T11:10:48.973Z,153797.06
2023-05-04T11:13:18.297Z,153777.94
2023-05-04T11:15:53.555Z,153799.59
2023-05-04T11:18:26.339Z,153757.56
2023-05-04T11:20:52.178Z,153741.00
2023-05-04T11:23:18.069Z,153727.00
2023-05-04T11:25:43.989Z,153828.94
2023-05-04T11:28:09.777Z,153923.25
2023-05-04T11:30:41.539Z,153934.69
2023-05-04T11:33:12.882Z,154031.59
2023-05-04T11:35:39.624Z,154011.22
2023-05-04T11:38:06.876Z,154071.13
2023-05-04T11:40:33.092Z,154179.56
2023-05-04T11:42:59.658Z,154165.53
2023-05-04T11:45:31.747Z,154245.91
2023-05-04T11:47:58.790Z,154270.09
2023-05-04T11:50:26.171Z,154253.53
2023-05-04T11:53:09.935Z,154235.66
2023-05-04T11:55:39.327Z,154308.38
2023-05-04T11:58:10.195Z,154250.97
2023-05-04T12:00:40.122Z,154174.47
2023-05-04T12:03:08.529Z,154250.97
2023-05-04T12:05:35.649Z,154300.75
2023-05-04T12:08:02.738Z,154382.41
2023-05-04T12:10:30.608Z,154413.06
2023-05-04T12:12:56.705Z,154248.44
2023-05-04T12:15:35.851Z,154197.41
2023-05-04T12:18:03.252Z,154247.16
2023-05-04T12:20:32.798Z,154222.91
2023-05-04T12:23:05.259Z,154129.81
2023-05-04T12:25:31.089Z,154226.75
2023-05-04T12:27:57.114Z,154165.53
2023-05-04T12:30:22.924Z,154249.72
2023-05-04T12:32:48.779Z,154233.13
2023-05-04T12:35:14.749Z,154350.50
2023-05-04T12:37:41.397Z,154383.69
2023-05-04T12:40:20.881Z,154501.13
2023-05-04T12:42:53.965Z,154489.59
2023-05-04T12:45:21.829Z,154451.31
2023-05-04T12:47:47.648Z,154470.47
2023-05-04T12:50:13.544Z,154420.69
2023-05-04T12:52:40.244Z,154455.16
2023-05-04T12:55:06.813Z,154619.84
2023-05-04T12:57:32.811Z,154711.81
2023-05-04T12:59:59.956Z,154645.41
2023-05-04T13:02:26.259Z,154773.16
2023-05-04T13:04:52.128Z,154880.50
2023-05-04T13:07:17.901Z,154799.94
2023-05-04T13:09:43.722Z,154723.31
2023-05-04T13:12:09.518Z,154734.84
2023-05-04T13:14:39.255Z,154586.66
2023-05-04T13:17:05.840Z,154530.50
2023-05-04T13:19:31.710Z,154424.50
2023-05-04T13:21:57.492Z,154483.25
2023-05-04T13:24:23.430Z,154484.53
2023-05-04T13:26:49.365Z,154450.06
2023-05-04T13:29:15.283Z,154478.09
2023-05-04T13:31:44.999Z,154471.75
2023-05-04T13:34:11.118Z,154452.59
2023-05-04T13:36:36.902Z,154603.25
2023-05-04T13:39:02.750Z,154618.56
2023-05-04T13:41:28.593Z,154512.63
2023-05-04T13:43:54.442Z,154580.28
2023-05-04T13:46:20.898Z,154453.88
2023-05-04T13:48:46.807Z,154444.97
2023-05-04T13:51:12.614Z,154582.81
2023-05-04T13:53:38.433Z,154413.06
2023-05-04T13:56:04.985Z,154438.56
2023-05-04T13:58:30.871Z,154434.75
2023-05-04T14:00:58.418Z,154365.81
2023-05-04T14:03:24.333Z,154313.50
2023-05-04T14:05:51.063Z,154211.44
2023-05-04T14:08:16.905Z,154316.09
2023-05-04T14:10:42.759Z,154493.44
2023-05-04T14:13:08.764Z,154622.38
2023-05-04T14:15:55.407Z,154647.94
2023-05-04T14:18:21.318Z,154686.25
2023-05-04T14:20:47.817Z,154513.88
2023-05-04T14:23:13.724Z,154409.25
2023-05-04T14:25:41.480Z,154576.47
2023-05-04T14:28:08.126Z,154665.81
2023-05-04T14:30:34.054Z,154688.81
2023-05-04T14:33:02.857Z,154610.94
2023-05-04T14:35:28.739Z,154676.00
2023-05-04T14:37:54.721Z,154704.19
2023-05-04T14:40:20.860Z,154714.38
2023-05-04T14:42:46.748Z,154711.81
2023-05-04T14:45:12.834Z,154719.50
2023-05-04T14:47:39.032Z,154678.56
2023-05-04T14:50:06.323Z,154662.00
2023-05-04T14:52:32.300Z,154645.41
2023-05-04T14:54:58.104Z,154672.19
2023-05-04T14:57:23.974Z,154697.81
2023-05-04T14:59:49.792Z,154742.47
2023-05-04T15:02:16.732Z,154727.16
2023-05-04T15:04:42.626Z,154716.97
2023-05-04T15:07:08.744Z,154503.66
2023-05-04T15:09:34.844Z,154495.97
2023-05-04T15:12:00.956Z,154363.28
2023-05-04T15:14:26.774Z,154451.31
2023-05-04T15:16:52.733Z,154356.91
2023-05-04T15:19:18.561Z,154340.31
2023-05-04T15:21:44.420Z,154332.66
2023-05-04T15:24:10.350Z,154381.13
2023-05-04T15:26:36.194Z,154387.50
2023-05-04T15:29:01.986Z,154331.38
2023-05-04T15:31:27.876Z,154310.91
2023-05-04T15:33:53.643Z,154299.47
2023-05-04T15:36:19.477Z,154282.88
2023-05-04T15:38:45.269Z,154265.03
2023-05-04T15:41:13.027Z,154244.63
2023-05-04T15:43:38.824Z,154318.66
2023-05-04T15:46:04.646Z,154342.88
2023-05-04T15:48:30.615Z,154381.13
2023-05-04T15:50:56.461Z,154420.69
2023-05-04T15:53:22.375Z,154411.78
2023-05-04T15:55:49.596Z,154406.69
2023-05-04T15:58:15.512Z,154289.25
2023-05-04T16:00:41.446Z,154280.34
2023-05-04T16:03:07.964Z,154286.69
2023-05-04T16:05:34.154Z,154239.47
2023-05-04T16:08:00.454Z,154157.88
2023-05-04T16:10:26.301Z,154177.00
2023-05-04T16:12:52.450Z,154247.16
2023-05-04T16:15:18.669Z,154231.84
2023-05-04T16:17:44.460Z,154249.72
2023-05-04T16:20:11.042Z,154238.22
2023-05-04T16:22:39.677Z,154161.69
2023-05-04T16:25:10.833Z,154161.69
2023-05-04T16:27:37.369Z,154120.91
2023-05-04T16:30:03.541Z,154080.06
2023-05-04T16:32:29.478Z,154099.19
2023-05-04T16:34:55.288Z,154055.81
2023-05-04T16:37:21.141Z,154074.94
2023-05-04T16:39:46.941Z,154049.47
2023-05-04T16:42:12.938Z,154087.69
2023-05-04T16:44:38.813Z,154064.75
2023-05-04T16:47:04.724Z,154147.66
2023-05-04T16:49:31.559Z,154162.97
2023-05-04T16:51:57.405Z,154096.59
2023-05-04T16:54:23.360Z,154054.53
2023-05-04T16:56:49.662Z,154058.34
2023-05-04T16:59:15.891Z,154100.47
2023-05-04T17:01:42.807Z,154109.38
2023-05-04T17:04:10.071Z,154086.44
2023-05-04T17:06:36.854Z,154026.53
2023-05-04T17:09:04.079Z,153997.19
2023-05-04T17:11:33.763Z,153986.97
2023-05-04T17:14:00.575Z,153905.41
2023-05-04T17:16:26.538Z,153895.16
2023-05-04T17:18:52.482Z,153907.97
2023-05-04T17:21:18.373Z,153923.25
2023-05-04T17:23:44.206Z,153941.09
2023-05-04T17:26:10.143Z,153881.19
2023-05-04T17:28:36.298Z,153915.59
2023-05-04T17:31:02.300Z,153943.66
2023-05-04T17:33:28.478Z,153980.63
2023-05-04T17:35:54.277Z,153923.25
2023-05-04T17:38:20.121Z,153896.44
2023-05-04T17:40:45.984Z,153873.50
2023-05-04T17:43:11.822Z,153827.66
2023-05-04T17:45:37.714Z,153757.56
2023-05-04T17:48:03.830Z,153751.19
2023-05-04T17:50:29.996Z,153775.41
2023-05-04T17:52:56.291Z,153798.31
2023-05-04T17:55:23.958Z,153809.81
2023-05-04T17:57:51.185Z,153772.88
2023-05-04T18:00:17.373Z,153734.59
2023-05-04T18:02:43.814Z,153690.06
2023-05-04T18:05:10.282Z,153644.13
2023-05-04T18:07:36.216Z,153597.03
2023-05-04T18:10:02.847Z,153572.84
2023-05-04T18:12:28.767Z,153560.13
2023-05-04T18:14:54.708Z,153537.22
2023-05-04T18:17:20.692Z,153497.69
2023-05-04T18:19:46.541Z,153496.44
2023-05-04T18:22:12.455Z,153478.59
2023-05-04T18:24:38.516Z,153440.38
2023-05-04T18:27:04.635Z,153437.84
2023-05-04T18:29:31.462Z,153402.19
2023-05-04T18:31:58.943Z,153392.03
2023-05-04T18:34:24.833Z,153388.19
2023-05-04T18:36:50.760Z,153369.09
2023-05-04T18:39:16.820Z,153372.91
2023-05-04T18:41:42.829Z,153351.28
2023-05-04T18:44:09.418Z,153351.28
2023-05-04T18:46:35.541Z,153352.53
2023-05-04T18:49:02.033Z,153342.38
2023-05-04T18:51:28.010Z,153310.56
2023-05-04T18:53:54.017Z,153301.69
2023-05-04T18:56:19.904Z,153282.56
2023-05-04T18:58:45.851Z,153299.09
2023-05-04T19:01:12.829Z,153271.13
2023-05-04T19:03:38.856Z,153258.38
2023-05-04T19:06:05.008Z,153254.59
2023-05-04T19:08:31.164Z,153236.78
2023-05-04T19:11:02.262Z,153230.44
2023-05-04T19:13:28.603Z,153187.09
2023-05-04T19:15:54.862Z,153204.91
2023-05-04T19:18:21.599Z,153185.81
2023-05-04T19:20:47.834Z,153175.69
2023-05-04T19:23:13.932Z,153173.09
2023-05-04T19:25:39.936Z,153169.28
2023-05-04T19:28:09.356Z,153162.94
2023-05-04T19:30:36.689Z,153165.47
2023-05-04T19:33:03.472Z,153154.00
2023-05-04T19:35:29.644Z,153123.53
2023-05-04T19:37:56.552Z,153120.97
2023-05-04T19:40:22.841Z,153112.06
2023-05-04T19:42:48.900Z,153122.25
2023-05-04T19:45:14.926Z,153105.72
2023-05-04T19:47:41.076Z,153117.13
2023-05-04T19:50:10.934Z,153078.97
2023-05-04T19:52:37.810Z,153059.91
2023-05-04T19:55:05.512Z,153073.91
2023-05-04T19:57:32.244Z,153078.97
2023-05-04T19:59:58.789Z,153040.84
2023-05-04T20:02:25.420Z,153091.72
2023-05-04T20:04:51.617Z,153066.28
2023-05-04T20:07:17.606Z,153049.75
2023-05-04T20:09:43.650Z,153023.03
2023-05-04T20:12:10.632Z,153035.75
2023-05-04T20:14:36.997Z,153021.75
2023-05-04T20:17:03.334Z,153007.78
2023-05-04T20:19:29.316Z,153003.97
2023-05-04T20:21:55.296Z,153002.69
2023-05-04T20:24:21.677Z,153012.88
2023-05-04T20:26:47.661Z,153019.22
2023-05-04T20:29:13.644Z,152998.91
2023-05-04T20:31:40.693Z,153000.16
2023-05-04T20:34:06.788Z,152970.91
2023-05-04T20:36:33.088Z,152970.91
2023-05-04T20:39:01.752Z,152982.38
2023-05-04T20:41:27.941Z,152982.38
2023-05-04T20:43:53.889Z,152984.91
2023-05-04T20:46:19.730Z,152995.09
2023-05-04T20:48:45.709Z,152984.91
2023-05-04T20:51:14.520Z,152991.25
2023-05-04T20:53:41.264Z,152981.09
2023-05-04T20:56:07.357Z,152976.03
2023-05-04T20:58:33.210Z,152969.63
2023-05-04T21:01:03.382Z,152961.97
2023-05-04T21:03:29.550Z,152961.97
2023-05-04T21:05:56.350Z,152930.19
2023-05-04T21:08:22.230Z,152932.72
2023-05-04T21:10:48.323Z,152923.84
2023-05-04T21:13:14.272Z,152936.53
2023-05-04T21:15:40.510Z,152937.78
2023-05-04T21:18:06.821Z,152907.31
2023-05-04T21:20:32.701Z,152902.19
2023-05-04T21:22:58.502Z,152920.00
2023-05-04T21:25:24.328Z,152886.97
2023-05-04T21:27:50.474Z,152903.50
2023-05-04T21:30:16.419Z,152907.31
2023-05-04T21:32:42.217Z,152903.50
2023-05-04T21:35:08.271Z,152893.31
2023-05-04T21:37:34.118Z,152888.25
2023-05-04T21:40:02.231Z,152867.91
2023-05-04T21:42:28.605Z,152870.47
2023-05-04T21:44:57.789Z,152897.13
2023-05-04T21:47:23.916Z,152866.66
2023-05-04T21:49:51.598Z,152846.28
2023-05-04T21:52:17.421Z,152836.13
2023-05-04T21:54:43.459Z,152829.75
2023-05-04T21:57:09.229Z,152847.53
2023-05-04T21:59:35.148Z,152855.19
2023-05-04T22:02:00.939Z,152833.59
2023-05-04T22:04:26.911Z,152817.06
2023-05-04T22:06:52.722Z,152808.16
2023-05-04T22:09:18.756Z,152818.34
2023-05-04T22:11:45.933Z,152832.34
2023-05-04T22:14:11.864Z,152806.88
2023-05-04T22:16:37.649Z,152842.47
2023-05-04T22:19:03.519Z,152843.75
2023-05-04T22:21:29.375Z,152852.66
2023-05-04T22:23:55.204Z,152841.19
2023-05-04T22:26:20.960Z,152824.69
2023-05-04T22:28:46.773Z,152853.94
2023-05-04T22:31:12.724Z,152846.28
2023-05-04T22:33:38.537Z,152818.34
2023-05-04T22:36:04.606Z,152827.22
2023-05-04T22:38:30.395Z,152833.59
2023-05-04T22:40:56.139Z,152837.41
2023-05-04T22:43:22.020Z,152814.53
2023-05-04T22:45:47.826Z,152818.34
2023-05-04T22:48:14.269Z,152801.81
2023-05-04T22:50:40.799Z,152834.88
2023-05-04T22:53:06.740Z,152820.88
2023-05-04T22:55:32.613Z,152818.34
2023-05-04T22:57:59.077Z,152818.34
2023-05-04T23:00:25.340Z,152815.81
2023-05-04T23:02:51.211Z,152818.34
2023-05-04T23:05:17.315Z,152843.75
2023-05-04T23:07:43.235Z,152791.63
2023-05-04T23:10:09.665Z,152791.63
2023-05-04T23:12:35.678Z,152786.56
2023-05-04T23:15:03.602Z,152770.03
2023-05-04T23:17:29.420Z,152773.84
2023-05-04T23:19:55.380Z,152772.56
2023-05-04T23:22:21.146Z,152759.91
2023-05-04T23:24:46.927Z,152761.16
2023-05-04T23:27:12.741Z,152767.50
2023-05-04T23:29:38.574Z,152742.13
2023-05-04T23:32:04.904Z,152748.44
2023-05-04T23:34:31.264Z,152738.25
2023-05-04T23:36:57.041Z,152717.94
2023-05-04T23:39:22.845Z,152725.59
2023-05-04T23:41:48.925Z,152721.75
2023-05-04T23:44:15.687Z,152734.47
2023-05-04T23:46:41.475Z,152731.94
2023-05-04T23:49:07.223Z,152744.66
2023-05-04T23:51:33.147Z,152748.44
2023-05-04T23:53:59.018Z,152734.47
2023-05-04T23:56:24.816Z,152773.84
2023-05-04T23:58:50.646Z,152758.63
